Time;durP1;ratioP1;P1;durP2;ratioP2;P2;SDS_P1;SDS_P2;PMS_P1;PMS_P2;Temp;Humidity;BMP_temperature;BMP_pressure;BME280_temperature;BME280_humidity;BME280_pressure;Samples;Min_cycle;Max_cycle;Signal;HPM_P1;HPM_P2
2022/03/14 00:00:19;;;;;;;16.48;9.60;;;;;;;10.01;53.10;100021.50;4922909;29;20115;-80
2022/03/14 00:02:45;;;;;;;15.00;9.25;;;;;;;10.04;52.75;100021.00;4924947;29;20035;-80
2022/03/14 00:05:13;;;;;;;20.52;10.32;;;;;;;10.00;53.74;100017.97;4922652;29;20023;-80
2022/03/14 00:07:38;;;;;;;18.08;8.77;;;;;;;9.90;53.64;100021.41;4924739;29;20492;-79
2022/03/14 00:10:05;;;;;;;16.13;9.13;;;;;;;9.90;52.50;100020.59;4923432;29;20111;-80
2022/03/14 00:12:31;;;;;;;21.60;10.23;;;;;;;9.87;53.56;100032.78;4924121;29;20047;-79
2022/03/14 00:14:59;;;;;;;22.30;9.32;;;;;;;9.83;53.55;100031.66;4923566;29;20028;-80
2022/03/14 00:17:26;;;;;;;19.25;9.48;;;;;;;9.88;55.14;100039.06;4937159;29;20039;-80
2022/03/14 00:19:52;;;;;;;19.52;10.07;;;;;;;9.85;55.43;100034.94;4941380;29;20561;-80
2022/03/14 00:22:19;;;;;;;20.65;10.63;;;;;;;9.75;55.86;100035.66;4941490;29;20121;-80
2022/03/14 00:24:44;;;;;;;15.25;8.35;;;;;;;9.79;56.40;100038.69;4931021;29;20036;-79
2022/03/14 00:27:10;;;;;;;14.55;8.43;;;;;;;9.81;55.50;100039.25;4922443;29;20078;-78
2022/03/14 00:29:36;;;;;;;17.40;9.23;;;;;;;9.87;55.22;100042.84;4931434;29;20035;-80
2022/03/14 00:32:01;;;;;;;18.33;8.10;;;;;;;9.91;56.05;100042.09;4940968;29;20040;-80
2022/03/14 00:34:27;;;;;;;14.20;8.55;;;;;;;9.93;56.32;100044.56;4942915;29;20027;-79
2022/03/14 00:36:52;;;;;;;30.95;10.50;;;;;;;9.89;57.48;100051.59;4942918;29;20527;-80
2022/03/14 00:39:18;;;;;;;12.15;6.22;;;;;;;9.81;58.29;100044.69;4942447;29;20110;-80
2022/03/14 00:41:43;;;;;;;16.13;7.55;;;;;;;9.81;58.70;100039.25;4943228;29;20074;-79
2022/03/14 00:44:16;;;;;;;12.57;5.97;;;;;;;9.82;59.25;100043.63;4940376;29;20426;-80
2022/03/14 00:46:42;;;;;;;13.93;8.10;;;;;;;9.78;59.38;100039.78;4941654;29;20047;-80
2022/03/14 00:49:08;;;;;;;12.95;5.95;;;;;;;9.74;59.81;100049.53;4941736;29;20071;-79
2022/03/14 00:51:35;;;;;;;11.32;5.93;;;;;;;9.66;60.61;100043.41;4942491;29;20379;-81
2022/03/14 00:54:01;;;;;;;14.57;5.35;;;;;;;9.69;60.38;100040.22;4935391;29;20031;-80
2022/03/14 00:56:27;;;;;;;12.25;5.78;;;;;;;9.72;61.11;100048.94;4922487;29;20111;-80
2022/03/14 00:58:52;;;;;;;10.93;4.93;;;;;;;9.72;61.30;100052.50;4923538;29;20035;-79
2022/03/14 01:01:18;;;;;;;30.20;6.40;;;;;;;9.77;61.66;100057.16;4921446;29;20036;-82
2022/03/14 01:03:43;;;;;;;13.75;5.65;;;;;;;9.77;61.80;100059.88;4923708;29;20046;-80
2022/03/14 01:06:08;;;;;;;9.15;4.47;;;;;;;9.89;61.26;100076.94;4920654;29;20056;-80
2022/03/14 01:08:33;;;;;;;8.63;4.43;;;;;;;10.45;59.04;100080.59;4924007;29;20031;-79
2022/03/14 01:10:59;;;;;;;28.13;11.65;;;;;;;10.70;55.90;100081.16;4922596;29;20047;-80
2022/03/14 01:13:25;;;;;;;21.80;10.43;;;;;;;10.89;54.71;100080.75;4922516;29;20061;-79
2022/03/14 01:15:51;;;;;;;27.25;10.38;;;;;;;10.65;56.31;100089.25;4924888;29;20046;-79
2022/03/14 01:18:16;;;;;;;24.52;11.43;;;;;;;10.45;58.24;100085.22;4941445;29;20031;-80
2022/03/14 01:20:42;;;;;;;21.40;10.65;;;;;;;10.24;62.40;100095.88;4942702;29;20046;-80
2022/03/14 01:23:08;;;;;;;19.42;9.55;;;;;;;10.07;63.98;100083.16;4941536;29;20090;-80
2022/03/14 01:25:33;;;;;;;18.67;10.57;;;;;;;9.82;66.16;100087.22;4923550;29;20480;-79
2022/03/14 01:27:59;;;;;;;17.75;9.80;;;;;;;9.61;66.60;100084.19;4921790;29;20048;-81
2022/03/14 01:30:24;;;;;;;13.75;8.07;;;;;;;9.73;67.73;100096.88;4923322;29;20059;-80
2022/03/14 01:32:50;;;;;;;12.70;6.57;;;;;;;9.78;68.50;100099.69;4923405;29;20040;-80
2022/03/14 01:35:19;;;;;;;15.90;7.53;;;;;;;9.78;68.41;100110.56;4922103;29;20027;-80
2022/03/14 01:37:49;;;;;;;14.07;7.22;;;;;;;10.04;66.90;100116.34;4923541;29;20028;-80
2022/03/14 01:40:16;;;;;;;11.93;6.10;;;;;;;10.45;65.04;100124.22;4921446;29;20071;-81
2022/03/14 01:42:41;;;;;;;15.57;6.30;;;;;;;10.49;63.82;100130.00;4923407;29;20094;-79
2022/03/14 01:45:07;;;;;;;13.85;7.32;;;;;;;10.53;63.60;100131.13;4921312;29;20051;-79
2022/03/14 01:47:34;;;;;;;10.27;5.28;;;;;;;10.56;62.47;100136.06;4923202;29;20504;-81
2022/03/14 01:49:59;;;;;;;11.75;6.03;;;;;;;10.86;61.71;100129.28;4921954;29;20032;-81
2022/03/14 01:52:25;;;;;;;11.73;6.00;;;;;;;10.93;61.47;100129.09;4902158;29;20384;-78
2022/03/14 01:54:51;;;;;;;9.68;5.30;;;;;;;10.98;61.77;100139.22;4913763;29;20088;-80
2022/03/14 01:57:17;;;;;;;9.48;4.50;;;;;;;10.94;62.21;100138.09;4921202;29;20044;-80
2022/03/14 01:59:43;;;;;;;11.00;5.07;;;;;;;10.98;62.22;100133.78;4923154;29;20043;-80
2022/03/14 02:02:08;;;;;;;10.05;5.10;;;;;;;11.15;61.68;100130.91;4921619;29;20043;-79
2022/03/14 02:04:35;;;;;;;10.50;4.75;;;;;;;11.20;62.04;100130.97;4923228;29;20035;-81
2022/03/14 02:07:00;;;;;;;9.30;4.78;;;;;;;11.03;62.97;100133.81;4922326;29;20155;-80
2022/03/14 02:09:25;;;;;;;8.48;3.83;;;;;;;10.98;63.27;100125.59;4922796;29;20032;-80
2022/03/14 02:12:05;;;;;;;9.65;4.93;;;;;;;10.93;64.04;100139.16;4922072;29;20273;-81
2022/03/14 02:14:31;;;;;;;10.98;4.78;;;;;;;10.91;63.76;100139.44;4920014;29;20059;-80
2022/03/14 02:16:56;;;;;;;10.50;5.18;;;;;;;11.08;63.38;100136.56;4931464;29;20444;-81
2022/03/14 02:19:21;;;;;;;8.68;3.88;;;;;;;11.04;63.67;100143.66;4940146;29;20047;-80
2022/03/14 02:21:47;;;;;;;10.30;5.28;;;;;;;11.07;64.13;100139.56;4942593;29;20047;-80
2022/03/14 02:24:12;;;;;;;10.57;4.47;;;;;;;11.18;63.51;100143.22;4932172;29;20561;-80
2022/03/14 02:26:41;;;;;;;7.07;4.00;;;;;;;11.18;63.94;100152.25;4924797;29;20282;-81
2022/03/14 02:29:11;;;;;;;9.35;4.05;;;;;;;11.10;64.19;100149.97;4924650;29;20277;-80
2022/03/14 02:31:37;;;;;;;10.85;5.55;;;;;;;11.01;64.97;100156.97;4925322;29;20122;-81
2022/03/14 02:34:07;;;;;;;8.23;3.38;;;;;;;11.03;65.75;100155.63;4926330;29;20480;-81
2022/03/14 02:36:32;;;;;;;12.95;5.35;;;;;;;11.11;65.77;100158.97;4923613;29;20044;-81
2022/03/14 02:38:58;;;;;;;8.23;4.72;;;;;;;10.93;66.39;100150.91;4926155;29;20110;-81
2022/03/14 02:41:24;;;;;;;9.18;4.95;;;;;;;10.91;67.79;100157.69;4906841;29;20036;-79
2022/03/14 02:43:49;;;;;;;7.85;4.18;;;;;;;10.70;68.44;100162.97;4925128;29;20032;-81
2022/03/14 02:46:15;;;;;;;8.68;3.65;;;;;;;10.73;68.82;100163.25;4923935;29;20043;-79
2022/03/14 02:48:40;;;;;;;10.68;5.07;;;;;;;10.73;69.10;100170.63;4923150;29;20031;-80
2022/03/14 02:51:06;;;;;;;10.90;4.82;;;;;;;10.54;70.55;100170.94;4926202;29;20035;-81
2022/03/14 02:53:31;;;;;;;7.43;3.53;;;;;;;10.33;72.40;100181.56;4923244;29;20048;-80
2022/03/14 02:55:56;;;;;;;10.70;4.93;;;;;;;10.35;72.56;100179.41;4925554;29;20063;-80
2022/03/14 02:58:22;;;;;;;8.25;3.70;;;;;;;10.44;72.09;100187.97;4926359;29;20525;-79
2022/03/14 03:00:49;;;;;;;10.13;5.03;;;;;;;10.43;72.74;100189.06;4933909;29;20023;-79
2022/03/14 03:03:14;;;;;;;9.30;4.10;;;;;;;10.17;74.28;100196.88;4943739;29;20990;-80
2022/03/14 03:08:24;;;;;;;11.77;5.68;;;;;;;10.12;74.63;100203.09;4941329;29;20078;-80
2022/03/14 03:10:49;;;;;;;11.35;5.13;;;;;;;10.22;74.16;100201.59;4943160;29;20383;-81
2022/03/14 03:13:15;;;;;;;12.93;6.38;;;;;;;10.04;75.08;100211.69;4944312;29;20024;-80
2022/03/14 03:15:41;;;;;;;12.93;6.45;;;;;;;10.05;76.01;100207.88;4938527;29;20028;-80
2022/03/14 03:18:07;;;;;;;9.35;5.45;;;;;;;10.09;75.52;100209.03;4944244;29;20110;-80
2022/03/14 03:20:33;;;;;;;11.85;5.88;;;;;;;10.30;74.30;100220.22;4924680;29;20097;-80
2022/03/14 03:22:59;;;;;;;10.87;5.67;;;;;;;10.18;74.97;100220.34;4943311;29;20120;-81
2022/03/14 03:25:24;;;;;;;11.93;5.47;;;;;;;10.15;75.42;100231.72;4943860;29;20276;-81
2022/03/14 03:27:49;;;;;;;15.07;6.40;;;;;;;10.07;75.74;100226.72;4942876;29;20273;-80
2022/03/14 03:30:15;;;;;;;12.52;6.28;;;;;;;9.97;76.43;100227.38;4944110;29;20663;-80
2022/03/14 03:32:41;;;;;;;11.07;6.18;;;;;;;9.89;76.72;100234.06;4942874;29;20036;-80
2022/03/14 03:35:06;;;;;;;14.15;5.95;;;;;;;10.12;76.10;100246.69;4942625;29;20413;-80
2022/03/14 03:37:32;;;;;;;10.25;5.82;;;;;;;10.17;76.06;100240.47;4942070;28;20376;-79
2022/03/14 03:39:57;;;;;;;9.48;5.10;;;;;;;10.02;76.93;100241.09;4943894;29;20090;-78
2022/03/14 03:42:23;;;;;;;11.82;5.75;;;;;;;10.13;76.36;100250.22;4942901;29;20269;-81
2022/03/14 03:45:02;;;;;;;11.27;4.88;;;;;;;10.19;76.20;100253.88;4942398;29;20024;-81
2022/03/14 03:47:28;;;;;;;12.93;6.20;;;;;;;10.11;76.68;100264.09;4925110;29;20118;-80
2022/03/14 03:49:54;;;;;;;14.57;5.60;;;;;;;9.73;78.27;100257.50;4923662;29;20090;-81
2022/03/14 03:52:20;;;;;;;11.85;5.80;;;;;;;9.98;78.16;100261.72;4924571;29;20210;-80
2022/03/14 03:54:45;;;;;;;8.63;3.97;;;;;;;9.89;78.08;100262.13;4923090;29;20040;-81
2022/03/14 03:57:12;;;;;;;11.43;6.53;;;;;;;9.92;78.69;100264.38;4923437;29;20266;-81
2022/03/14 03:59:37;;;;;;;9.05;5.47;;;;;;;9.74;79.78;100270.06;4923569;29;20099;-81
2022/03/14 04:02:04;;;;;;;10.40;4.63;;;;;;;9.79;78.91;100278.31;4905763;29;20609;-81
2022/03/14 04:04:30;;;;;;;13.88;6.13;;;;;;;10.06;78.49;100276.81;4924167;29;20254;-81
2022/03/14 04:06:56;;;;;;;11.25;5.28;;;;;;;9.86;79.33;100281.72;4922606;29;20413;-81
2022/03/14 04:09:22;;;;;;;10.82;5.75;;;;;;;10.00;78.58;100292.25;4924802;29;20374;-80
2022/03/14 04:11:47;;;;;;;10.38;4.97;;;;;;;9.90;79.12;100288.31;4922872;29;20523;-81
2022/03/14 04:14:15;;;;;;;8.70;4.40;;;;;;;9.91;79.11;100295.41;4923663;29;20379;-81
2022/03/14 04:16:41;;;;;;;12.48;6.05;;;;;;;9.84;79.50;100286.56;4926729;29;20157;-80
2022/03/14 04:19:06;;;;;;;10.93;5.25;;;;;;;9.77;79.38;100304.97;4941711;29;20591;-81
2022/03/14 04:21:35;;;;;;;12.68;4.90;;;;;;;9.91;79.36;100300.00;4943051;29;20038;-81
2022/03/14 04:26:46;;;;;;;7.97;4.10;;;;;;;9.57;80.39;100311.69;4939363;29;20046;-80
2022/03/14 04:29:11;;;;;;;10.18;4.43;;;;;;;9.72;80.04;100308.44;4941490;29;20131;-80
2022/03/14 04:31:36;;;;;;;9.82;4.22;;;;;;;9.91;78.61;100328.09;4943572;29;20027;-80
2022/03/14 04:34:02;;;;;;;8.25;4.35;;;;;;;9.81;78.90;100314.28;4942859;29;20407;-81
2022/03/14 04:36:27;;;;;;;6.40;3.10;;;;;;;9.67;79.48;100320.06;4925013;29;20129;-80
2022/03/14 04:38:52;;;;;;;7.13;3.28;;;;;;;9.57;79.94;100320.69;4942992;29;20028;-80
2022/03/14 04:41:18;;;;;;;6.73;3.50;;;;;;;9.58;80.10;100322.34;4941791;29;20063;-81
2022/03/14 04:43:43;;;;;;;9.20;3.80;;;;;;;9.67;79.30;100330.13;4942086;29;20710;-82
2022/03/14 04:46:09;;;;;;;5.45;2.60;;;;;;;9.56;79.71;100321.75;4939984;29;20035;-80
2022/03/14 04:48:34;;;;;;;5.32;2.75;;;;;;;9.67;78.62;100328.22;4942685;29;20102;-81
2022/03/14 04:51:00;;;;;;;5.57;2.97;;;;;;;9.49;79.67;100331.97;4940985;29;20534;-80
2022/03/14 04:53:25;;;;;;;6.43;2.67;;;;;;;9.53;79.32;100332.31;4941706;29;20479;-81
2022/03/14 04:55:50;;;;;;;6.40;3.25;;;;;;;9.44;79.97;100327.25;4942846;29;20297;-81
2022/03/14 04:58:17;;;;;;;7.03;2.88;;;;;;;9.58;79.55;100327.78;4940365;29;20422;-81
2022/03/14 05:00:43;;;;;;;6.03;2.65;;;;;;;9.46;80.32;100337.91;4943008;29;20050;-80
2022/03/14 05:03:08;;;;;;;5.28;2.72;;;;;;;9.68;79.29;100338.03;4941356;29;20550;-81
2022/03/14 05:05:34;;;;;;;5.45;2.75;;;;;;;9.42;80.27;100348.44;4942716;29;20682;-81
2022/03/14 05:08:00;;;;;;;8.80;3.10;;;;;;;9.29;81.09;100349.56;4940702;29;20345;-80
2022/03/14 05:10:25;;;;;;;5.05;2.28;;;;;;;9.22;81.50;100349.69;4942339;29;20510;-80
2022/03/14 05:12:50;;;;;;;5.57;2.67;;;;;;;9.20;81.64;100359.16;4941803;29;20039;-82
2022/03/14 05:15:16;;;;;;;7.75;2.67;;;;;;;9.29;80.67;100355.03;4939898;29;20031;-81
2022/03/14 05:17:42;;;;;;;8.32;2.58;;;;;;;9.29;80.83;100360.47;4937322;29;20047;-81
2022/03/14 05:20:09;;;;;;;5.18;2.55;;;;;;;9.29;80.58;100363.19;4940247;29;20115;-81
2022/03/14 05:22:48;;;;;;;10.27;2.90;;;;;;;9.52;79.84;100363.34;4942508;29;20482;-80
2022/03/14 05:25:17;;;;;;;7.38;2.60;;;;;;;9.34;80.55;100365.16;4941345;29;20134;-81
2022/03/14 05:27:42;;;;;;;4.95;2.08;;;;;;;9.10;82.05;100371.50;4942002;29;20229;-81
2022/03/14 05:30:08;;;;;;;9.00;3.47;;;;;;;9.11;82.36;100377.78;4941267;29;20122;-81
2022/03/14 05:32:35;;;;;;;6.65;2.33;;;;;;;9.27;81.81;100373.47;4941268;29;20023;-81
2022/03/14 05:35:00;;;;;;;5.47;2.65;;;;;;;9.30;81.07;100383.03;4941705;29;20478;-81
2022/03/14 05:37:26;;;;;;;6.30;2.85;;;;;;;9.32;81.17;100384.47;4940276;29;20118;-81
2022/03/14 05:39:51;;;;;;;6.50;2.87;;;;;;;9.41;80.51;100384.06;4941857;29;20028;-81
2022/03/14 05:42:16;;;;;;;8.27;3.60;;;;;;;9.59;79.96;100380.34;4940594;29;20471;-81
2022/03/14 05:44:45;;;;;;;8.65;3.30;;;;;;;9.26;80.35;100382.69;4942115;29;20265;-81
2022/03/14 05:47:11;;;;;;;6.70;3.00;;;;;;;9.38;80.49;100385.38;4940372;29;20035;-81
2022/03/14 05:49:36;;;;;;;7.40;3.33;;;;;;;9.42;80.73;100386.56;4940544;29;20036;-81
2022/03/14 05:52:02;;;;;;;5.93;3.38;;;;;;;9.10;82.85;100397.88;4941830;29;20052;-81
2022/03/14 05:54:28;;;;;;;6.65;3.70;;;;;;;9.23;81.91;100402.22;4940232;29;20026;-81
2022/03/14 05:56:54;;;;;;;8.00;3.70;;;;;;;9.17;82.68;100406.72;4937036;29;20024;-80
2022/03/14 05:59:19;;;;;;;10.43;4.43;;;;;;;9.19;81.83;100410.03;4922211;29;20554;-81
2022/03/14 06:01:46;;;;;;;9.32;4.28;;;;;;;9.20;81.51;100410.84;4935264;28;20027;-81
2022/03/14 06:04:11;;;;;;;8.85;4.55;;;;;;;9.18;82.27;100422.00;4921967;29;20027;-81
2022/03/14 06:06:37;;;;;;;9.45;4.43;;;;;;;9.11;82.56;100429.47;4929904;29;20075;-81
2022/03/14 06:09:02;;;;;;;9.90;4.95;;;;;;;9.23;81.98;100432.16;4908322;29;20051;-81
2022/03/14 06:11:28;;;;;;;8.97;4.70;;;;;;;9.20;82.27;100441.63;4920272;29;20546;-79
2022/03/14 06:13:53;;;;;;;8.38;4.18;;;;;;;9.34;81.79;100438.63;4925980;29;20277;-79
2022/03/14 06:16:18;;;;;;;11.50;5.13;;;;;;;9.46;80.31;100438.59;4930680;29;20532;-78
2022/03/14 06:18:43;;;;;;;11.80;4.93;;;;;;;9.45;80.71;100447.84;4929919;29;20273;-80
2022/03/14 06:21:09;;;;;;;8.68;4.45;;;;;;;9.36;80.93;100447.38;4932094;29;20100;-80
2022/03/14 06:23:35;;;;;;;10.03;4.93;;;;;;;9.26;81.92;100458.03;4935210;29;20035;-80
2022/03/14 06:26:00;;;;;;;9.25;4.32;;;;;;;9.34;82.04;100461.25;4924045;29;21168;-79
2022/03/14 06:28:26;;;;;;;9.02;4.40;;;;;;;9.22;81.76;100463.16;4929239;29;20055;-80
2022/03/14 06:30:51;;;;;;;10.25;5.38;;;;;;;9.41;81.21;100469.28;4933766;29;20126;-80
2022/03/14 06:33:16;;;;;;;11.33;5.87;;;;;;;9.48;81.23;100452.00;4930999;29;20669;-82
2022/03/14 06:35:42;;;;;;;9.82;4.68;;;;;;;9.16;82.49;100467.66;4940548;29;20292;-80
2022/03/14 06:38:09;;;;;;;10.25;5.13;;;;;;;9.26;82.24;100474.38;4943748;29;20039;-81
2022/03/14 06:40:34;;;;;;;13.73;6.03;;;;;;;9.17;82.36;100474.72;4927379;29;20062;-81
2022/03/14 06:42:59;;;;;;;10.40;4.80;;;;;;;9.23;82.23;100473.78;4943848;29;20043;-80
2022/03/14 06:45:25;;;;;;;12.37;6.63;;;;;;;9.27;82.21;100474.16;4935719;29;20389;-80
2022/03/14 06:47:52;;;;;;;11.20;5.40;;;;;;;9.18;82.42;100481.84;4889003;29;20718;-80
2022/03/14 06:50:18;;;;;;;10.13;5.68;;;;;;;9.25;81.95;100478.16;4905506;29;20036;-80
2022/03/14 06:52:43;;;;;;;10.25;5.07;;;;;;;9.49;80.46;100489.03;4906381;29;20036;-80
2022/03/14 06:55:10;;;;;;;11.48;6.10;;;;;;;9.51;80.35;100486.88;4905385;29;20039;-79
2022/03/14 07:00:57;;;;;;;15.43;7.80;;;;;;;9.38;80.66;100491.50;4905287;29;20047;-80
2022/03/14 07:03:23;;;;;;;14.40;7.10;;;;;;;9.50;80.67;100496.94;4904106;29;20025;-81
2022/03/14 07:05:49;;;;;;;13.15;6.13;;;;;;;9.56;80.00;100500.59;4905937;29;20138;-83
2022/03/14 07:08:17;;;;;;;14.05;6.88;;;;;;;9.41;81.04;100503.81;4904535;29;20028;-81
2022/03/14 07:10:42;;;;;;;11.43;7.05;;;;;;;9.30;81.27;100510.94;4906560;29;20537;-81
2022/03/14 07:13:07;;;;;;;11.93;5.67;;;;;;;9.53;81.00;100507.38;4920723;29;20023;-84
2022/03/14 07:15:33;;;;;;;12.40;6.43;;;;;;;9.28;81.64;100518.50;4925757;29;20731;-80
2022/03/14 07:17:58;;;;;;;10.88;5.50;;;;;;;9.33;81.39;100521.34;4923019;29;20705;-81
2022/03/14 07:20:25;;;;;;;19.63;6.80;;;;;;;9.62;80.24;100521.41;4927317;29;20055;-85
2022/03/14 07:22:58;;;;;;;11.65;5.32;;;;;;;9.42;80.74;100519.91;4928127;29;20043;-80
2022/03/14 07:25:29;;;;;;;12.07;5.68;;;;;;;9.39;80.33;100525.84;4925758;29;20086;-80
2022/03/14 07:27:58;;;;;;;15.55;6.05;;;;;;;9.47;80.46;100530.09;4924020;29;20759;-79
2022/03/14 07:30:24;;;;;;;11.57;5.40;;;;;;;9.54;80.24;100532.69;4923603;29;20043;-80
2022/03/14 07:32:50;;;;;;;10.60;5.28;;;;;;;9.52;80.00;100543.81;4923682;29;20482;-80
2022/03/14 07:35:16;;;;;;;12.02;5.40;;;;;;;9.22;81.82;100545.59;4922837;29;20035;-80
2022/03/14 07:37:41;;;;;;;10.52;5.07;;;;;;;9.28;80.91;100548.44;4923403;29;20491;-81
2022/03/14 07:40:12;;;;;;;8.88;4.53;;;;;;;9.45;80.73;100549.41;4923146;29;20335;-80
2022/03/14 07:42:44;;;;;;;9.23;4.47;;;;;;;9.69;79.86;100559.41;4920966;29;20024;-80
2022/03/14 07:45:11;;;;;;;12.57;4.45;;;;;;;9.77;78.80;100550.88;4920001;29;20057;-80
2022/03/14 07:47:37;;;;;;;11.70;4.15;;;;;;;9.69;79.25;100553.97;4923818;29;20664;-78
2022/03/14 07:50:05;;;;;;;9.15;4.05;;;;;;;9.59;80.29;100560.03;4923766;29;20039;-79
2022/03/14 07:52:31;;;;;;;8.10;3.78;;;;;;;9.39;81.73;100560.38;4924028;29;20019;-80
2022/03/14 07:54:56;;;;;;;8.00;3.60;;;;;;;9.40;81.54;100570.19;4905973;29;20028;-80
2022/03/14 07:57:21;;;;;;;8.10;4.23;;;;;;;9.48;81.10;100574.47;4923020;29;20361;-80
2022/03/14 07:59:47;;;;;;;7.07;3.83;;;;;;;9.50;80.15;100577.78;4923171;29;20284;-80
2022/03/14 08:02:13;;;;;;;12.13;4.70;;;;;;;9.53;80.23;100580.88;4923142;29;20027;-80
2022/03/14 08:04:39;;;;;;;9.75;5.07;;;;;;;9.54;80.61;100573.53;4921432;29;20118;-80
2022/03/14 08:07:05;;;;;;;7.95;3.30;;;;;;;9.58;80.22;100593.75;4922937;29;20028;-81
2022/03/14 08:09:30;;;;;;;7.85;3.97;;;;;;;9.66;80.54;100598.03;4922223;29;21042;-80
2022/03/14 08:11:58;;;;;;;7.82;3.58;;;;;;;9.78;79.63;100595.28;4922414;29;20031;-80
2022/03/14 08:14:23;;;;;;;8.63;3.35;;;;;;;9.82;79.66;100607.34;4922774;29;20031;-81
2022/03/14 08:16:48;;;;;;;8.38;4.07;;;;;;;9.75;79.06;100618.38;4931337;29;20027;-81
2022/03/14 08:19:14;;;;;;;10.93;4.22;;;;;;;9.87;78.58;100609.34;4942077;29;20078;-82
2022/03/14 08:21:40;;;;;;;12.15;4.75;;;;;;;9.76;79.07;100614.56;4924729;29;20482;-81
2022/03/14 08:24:06;;;;;;;13.48;6.18;;;;;;;9.68;80.25;100623.13;4941151;28;20047;-81
2022/03/14 08:26:32;;;;;;;10.98;5.30;;;;;;;9.61;80.54;100616.94;4905127;29;20032;-80
2022/03/14 08:28:58;;;;;;;8.32;3.95;;;;;;;9.58;81.13;100627.25;4923397;29;20041;-80
2022/03/14 08:31:23;;;;;;;6.70;3.90;;;;;;;9.90;79.42;100634.22;4905731;29;20039;-80
2022/03/14 08:33:49;;;;;;;11.00;4.13;;;;;;;9.83;79.57;100628.06;4922879;29;20484;-81
2022/03/14 08:36:20;;;;;;;10.35;5.10;;;;;;;9.73;80.89;100633.28;4922771;29;20366;-81
2022/03/14 08:38:45;;;;;;;11.48;4.68;;;;;;;9.73;80.46;100639.56;4922304;29;20047;-80
2022/03/14 08:41:25;;;;;;;10.50;5.07;;;;;;;9.67;80.02;100638.63;4923533;29;20412;-81
2022/03/14 08:43:50;;;;;;;7.50;3.85;;;;;;;9.86;79.80;100635.78;4927484;29;20169;-83
2022/03/14 08:46:15;;;;;;;8.88;4.30;;;;;;;10.20;78.48;100637.00;4934883;29;20110;-81
2022/03/14 08:48:41;;;;;;;7.78;3.70;;;;;;;9.87;79.50;100637.41;4913820;29;20556;-81
2022/03/14 08:51:07;;;;;;;9.32;4.55;;;;;;;10.26;77.63;100636.03;4933355;29;20513;-81
2022/03/14 08:53:32;;;;;;;8.77;3.67;;;;;;;10.29;78.79;100643.75;4930913;29;20544;-80
2022/03/14 08:56:00;;;;;;;11.00;4.05;;;;;;;10.34;78.53;100653.91;4929086;29;20129;-81
2022/03/14 08:58:25;;;;;;;10.18;4.90;;;;;;;10.44;78.44;100653.28;4932447;29;20015;-81
2022/03/14 09:00:51;;;;;;;11.07;4.83;;;;;;;10.57;77.30;100655.78;4929535;29;20039;-81
2022/03/14 09:03:17;;;;;;;7.93;4.30;;;;;;;10.50;77.52;100661.38;4931254;29;20258;-81
2022/03/14 09:05:43;;;;;;;14.97;4.57;;;;;;;10.78;75.88;100661.59;4929191;29;20031;-81
2022/03/14 09:08:08;;;;;;;8.82;3.78;;;;;;;10.68;76.51;100667.69;4927484;29;20329;-81
2022/03/14 09:10:36;;;;;;;11.10;5.15;;;;;;;10.74;75.82;100664.00;4913783;29;20082;-81
2022/03/14 09:13:03;;;;;;;9.10;5.45;;;;;;;10.59;76.03;100675.44;4931662;29;20035;-80
2022/03/14 09:15:29;;;;;;;10.05;4.75;;;;;;;10.42;75.84;100674.50;4927419;29;20114;-80
2022/03/14 09:17:57;;;;;;;10.70;4.43;;;;;;;10.31;75.73;100682.50;4931083;29;20026;-81
2022/03/14 09:20:24;;;;;;;10.57;4.20;;;;;;;10.21;77.29;100687.72;4931707;29;20059;-81
2022/03/14 09:22:51;;;;;;;8.10;3.70;;;;;;;10.31;76.71;100689.84;4926882;29;20542;-81
2022/03/14 09:25:18;;;;;;;17.48;6.85;;;;;;;10.68;75.13;100680.53;4930806;29;20031;-81
2022/03/14 09:27:45;;;;;;;9.15;4.32;;;;;;;10.47;75.71;100688.25;4931892;29;20131;-81
2022/03/14 09:30:12;;;;;;;8.95;4.72;;;;;;;10.45;76.07;100684.94;4930272;29;20398;-79
2022/03/14 09:32:37;;;;;;;9.00;4.80;;;;;;;10.58;75.46;100684.69;4931484;29;20032;-82
2022/03/14 09:35:04;;;;;;;15.07;5.60;;;;;;;10.36;75.44;100693.50;4912024;29;20043;-81
2022/03/14 09:37:30;;;;;;;8.75;4.75;;;;;;;10.72;74.69;100695.31;4931695;29;20114;-80
2022/03/14 09:39:56;;;;;;;9.63;4.30;;;;;;;10.70;74.76;100698.28;4925347;29;20023;-80
2022/03/14 09:42:23;;;;;;;10.45;5.25;;;;;;;10.60;75.15;100693.44;4926101;29;20028;-81
2022/03/14 09:47:42;;;;;;;10.25;6.13;;;;;;;10.96;73.45;100700.69;4922455;29;20054;-79
2022/03/14 09:50:11;;;;;;;10.48;5.05;;;;;;;11.06;73.42;100706.34;4925960;29;20091;-80
2022/03/14 09:52:39;;;;;;;10.63;4.57;;;;;;;11.18;73.31;100719.09;4924828;29;20034;-81
2022/03/14 09:55:09;;;;;;;9.75;4.50;;;;;;;11.07;74.55;100729.81;4925767;29;20032;-80
2022/03/14 09:57:37;;;;;;;7.05;4.10;;;;;;;10.79;73.75;100723.28;4924765;29;20349;-80
2022/03/14 10:00:07;;;;;;;11.50;5.00;;;;;;;11.05;72.82;100731.94;4925181;29;20024;-80
2022/03/14 10:02:36;;;;;;;12.32;4.85;;;;;;;11.24;72.43;100729.03;4925009;29;20031;-79
2022/03/14 10:05:06;;;;;;;10.88;4.35;;;;;;;10.95;72.81;100739.94;4924898;29;20108;-80
2022/03/14 10:07:34;;;;;;;9.82;4.60;;;;;;;11.00;72.54;100745.50;4925598;29;20035;-79
2022/03/14 10:10:00;;;;;;;10.18;4.63;;;;;;;11.04;72.43;100741.22;4924358;29;20581;-79
2022/03/14 10:12:26;;;;;;;9.93;4.75;;;;;;;11.01;72.34;100744.41;4925121;29;20035;-81
2022/03/14 10:14:51;;;;;;;11.85;4.93;;;;;;;11.03;71.89;100750.47;4923543;29;20394;-80
2022/03/14 10:17:16;;;;;;;10.63;3.93;;;;;;;10.99;72.78;100743.84;4936122;29;20058;-79
2022/03/14 10:19:53;;;;;;;13.00;5.38;;;;;;;10.95;72.62;100761.75;4943702;29;20270;-79
2022/03/14 10:22:20;;;;;;;13.07;5.00;;;;;;;11.17;71.58;100752.88;4942935;29;20023;-79
2022/03/14 10:24:47;;;;;;;7.40;2.78;;;;;;;11.07;71.33;100754.38;4944721;29;20034;-80
2022/03/14 10:27:17;;;;;;;8.80;4.30;;;;;;;10.97;72.57;100768.66;4943185;29;20506;-80
2022/03/14 10:29:44;;;;;;;10.38;3.72;;;;;;;10.84;72.85;100785.31;4943744;29;20450;-80
2022/03/14 10:32:29;;;;;;;12.40;3.88;;;;;;;10.86;73.02;100789.44;4940263;29;20107;-79
2022/03/14 10:35:00;;;;;;;12.52;4.78;;;;;;;10.82;72.50;100788.25;4933616;29;20273;-80
2022/03/14 10:37:27;;;;;;;15.00;4.63;;;;;;;10.88;72.95;100791.94;4924812;29;20027;-80
2022/03/14 10:40:02;;;;;;;7.72;4.13;;;;;;;10.60;73.12;100796.25;4925941;29;20032;-81
2022/03/14 10:42:27;;;;;;;12.15;4.43;;;;;;;10.56;73.11;100795.91;4928892;29;20039;-81
2022/03/14 10:44:55;;;;;;;7.03;3.72;;;;;;;10.45;72.92;100800.28;4930184;29;20349;-80
2022/03/14 10:47:23;;;;;;;7.25;3.45;;;;;;;10.57;72.56;100808.47;4924115;29;20110;-81
2022/03/14 10:49:49;;;;;;;8.93;3.75;;;;;;;10.64;71.89;100807.53;4923913;29;20032;-81
2022/03/14 10:52:18;;;;;;;10.30;4.05;;;;;;;10.84;71.54;100810.66;4933039;29;20297;-81
2022/03/14 10:54:44;;;;;;;14.40;4.53;;;;;;;10.74;72.43;100818.63;4943716;29;20037;-80
2022/03/14 10:57:09;;;;;;;9.70;3.45;;;;;;;10.93;71.11;100815.75;4942106;29;20043;-80
2022/03/14 10:59:40;;;;;;;10.67;3.77;;;;;;;10.92;71.44;100814.09;4942514;29;20473;-80
2022/03/14 11:02:15;;;;;;;9.38;3.60;;;;;;;10.99;70.46;100809.31;4942688;29;20058;-81
2022/03/14 11:04:54;;;;;;;12.20;3.58;;;;;;;11.07;70.45;100806.22;4931638;29;20023;-81
2022/03/14 11:07:23;;;;;;;8.02;3.53;;;;;;;11.00;71.51;100812.88;4927864;29;20139;-80
2022/03/14 11:09:50;;;;;;;8.82;4.72;;;;;;;11.20;70.38;100816.03;4931580;29;20023;-81
2022/03/14 11:12:18;;;;;;;8.20;3.78;;;;;;;11.21;70.27;100812.22;4932886;29;20125;-80
2022/03/14 11:15:00;;;;;;;7.60;3.05;;;;;;;11.41;69.32;100804.66;4911113;29;20032;-80
2022/03/14 11:17:28;;;;;;;9.65;4.07;;;;;;;11.55;69.09;100816.91;4923579;29;20115;-81
2022/03/14 11:19:54;;;;;;;9.88;4.63;;;;;;;11.66;68.57;100801.56;4923530;29;20137;-81
2022/03/14 11:22:21;;;;;;;11.13;4.45;;;;;;;11.66;68.27;100814.38;4932163;29;20103;-80
2022/03/14 11:24:52;;;;;;;11.77;4.28;;;;;;;11.72;68.02;100805.19;4933420;29;20126;-80
2022/03/14 11:27:26;;;;;;;12.93;4.40;;;;;;;11.89;66.37;100812.59;4932460;29;20051;-81
2022/03/14 11:29:54;;;;;;;11.75;4.90;;;;;;;11.66;68.00;100817.09;4926861;29;20262;-78
2022/03/14 11:32:20;;;;;;;7.28;3.60;;;;;;;11.86;67.76;100813.06;4925098;29;20050;-78